createdAt,value
2023-01-08T00:00:56.389Z,2.88
2023-01-08T00:03:23.070Z,2.08
2023-01-08T00:05:49.942Z,3.85
2023-01-08T00:08:16.478Z,2.35
2023-01-08T00:10:42.810Z,3.88
2023-01-08T00:13:09.211Z,2.35
2023-01-08T00:15:35.681Z,3.03
2023-01-08T00:18:02.291Z,2.65
2023-01-08T00:20:29.239Z,2.50
2023-01-08T00:22:55.570Z,2.53
2023-01-08T00:25:21.958Z,3.15
2023-01-08T00:27:48.350Z,2.55
2023-01-08T00:30:14.802Z,2.58
2023-01-08T00:32:41.167Z,4.88
2023-01-08T00:35:07.835Z,3.15
2023-01-08T00:37:34.156Z,3.28
2023-01-08T00:40:00.537Z,3.13
2023-01-08T00:42:26.914Z,2.70
2023-01-08T00:44:53.496Z,4.15
2023-01-08T00:47:19.872Z,2.47
2023-01-08T00:49:46.223Z,2.55
2023-01-08T00:52:12.562Z,3.42
2023-01-08T00:54:39.006Z,2.70
2023-01-08T00:57:05.398Z,2.92
2023-01-08T00:59:31.721Z,2.30
2023-01-08T01:01:58.303Z,2.67
2023-01-08T01:04:26.318Z,3.15
2023-01-08T01:06:52.731Z,2.72
2023-01-08T01:09:19.116Z,3.17
2023-01-08T01:11:45.466Z,3.30
2023-01-08T01:14:12.073Z,2.83
2023-01-08T01:16:39.933Z,4.13
2023-01-08T01:19:06.388Z,2.40
2023-01-08T01:21:33.213Z,4.25
2023-01-08T01:24:05.215Z,3.58
2023-01-08T01:26:32.929Z,3.08
2023-01-08T01:28:59.853Z,2.88
2023-01-08T01:31:28.837Z,3.17
2023-01-08T01:33:55.419Z,2.92
2023-01-08T01:36:26.389Z,2.40
2023-01-08T01:38:55.091Z,3.28
2023-01-08T01:41:37.892Z,2.38
2023-01-08T01:44:42.201Z,3.28
2023-01-08T01:47:52.315Z,5.90
2023-01-08T01:50:27.573Z,2.00
2023-01-08T01:53:03.003Z,2.40
2023-01-08T01:55:31.738Z,4.25
2023-01-08T01:58:08.383Z,3.58
2023-01-08T02:00:35.171Z,2.90
2023-01-08T02:03:01.991Z,2.83
2023-01-08T02:05:38.815Z,3.25
2023-01-08T02:08:11.411Z,3.20
2023-01-08T02:10:53.492Z,3.70
2023-01-08T02:13:42.786Z,2.13
2023-01-08T02:16:18.759Z,1.73
2023-01-08T02:18:56.380Z,3.13
2023-01-08T02:21:33.050Z,1.73
2023-01-08T02:24:24.107Z,4.63
2023-01-08T02:26:53.681Z,2.00
2023-01-08T02:29:23.883Z,3.33
2023-01-08T02:31:50.343Z,2.70
2023-01-08T02:34:16.755Z,2.35
2023-01-08T02:36:57.008Z,2.72
2023-01-08T02:39:50.606Z,2.72
2023-01-08T02:42:26.059Z,2.08
2023-01-08T02:45:07.106Z,2.00
2023-01-08T02:47:42.396Z,2.30
2023-01-08T02:50:27.325Z,3.17
2023-01-08T02:53:05.840Z,1.88
2023-01-08T02:55:35.000Z,1.92
2023-01-08T02:58:03.350Z,2.15
2023-01-08T03:00:30.536Z,2.47
2023-01-08T03:03:08.259Z,2.38
2023-01-08T03:05:35.438Z,2.22
2023-01-08T03:08:02.440Z,4.13
2023-01-08T03:10:30.919Z,2.53
2023-01-08T03:13:11.907Z,2.33
2023-01-08T03:15:46.157Z,3.00
2023-01-08T03:18:18.726Z,2.75
2023-01-08T03:20:46.074Z,2.08
2023-01-08T03:23:15.103Z,2.65
2023-01-08T03:25:45.901Z,2.38
2023-01-08T03:28:18.959Z,2.10
2023-01-08T03:30:47.329Z,3.83
2023-01-08T03:33:16.648Z,2.75
2023-01-08T03:35:48.037Z,2.45
2023-01-08T03:38:22.085Z,2.85
2023-01-08T03:40:54.478Z,3.33
2023-01-08T03:43:20.875Z,3.13
2023-01-08T03:45:56.249Z,3.15
2023-01-08T03:48:24.952Z,2.13
2023-01-08T03:50:51.314Z,2.25
2023-01-08T03:53:17.798Z,3.38
2023-01-08T03:55:44.305Z,2.75
2023-01-08T03:58:10.670Z,2.13
2023-01-08T04:00:37.183Z,2.78
2023-01-08T04:03:05.854Z,2.90
2023-01-08T04:05:32.482Z,2.28
2023-01-08T04:07:59.008Z,2.35
2023-01-08T04:10:25.937Z,2.03
2023-01-08T04:12:52.296Z,1.95
2023-01-08T04:15:19.006Z,3.10
2023-01-08T04:17:45.580Z,1.83
2023-01-08T04:20:11.942Z,1.92
2023-01-08T04:22:38.255Z,1.88
2023-01-08T04:25:05.016Z,1.90
2023-01-08T04:27:31.386Z,2.25
2023-01-08T04:29:57.728Z,1.73
2023-01-08T04:32:24.166Z,2.45
2023-01-08T04:34:50.549Z,3.05
2023-01-08T04:37:16.912Z,2.55
2023-01-08T04:39:43.311Z,2.15
2023-01-08T04:42:09.657Z,2.05
2023-01-08T04:44:35.999Z,3.55
2023-01-08T04:47:02.374Z,2.28
2023-01-08T04:49:28.702Z,2.15
2023-01-08T04:51:55.039Z,2.90
2023-01-08T04:54:21.443Z,1.88
2023-01-08T04:56:51.439Z,2.70
2023-01-08T04:59:17.872Z,5.22
2023-01-08T05:01:44.518Z,2.63
2023-01-08T05:04:11.274Z,1.75
2023-01-08T05:06:37.580Z,4.45
2023-01-08T05:09:04.131Z,2.55
2023-01-08T05:11:30.455Z,4.53
2023-01-08T05:13:57.012Z,2.50
2023-01-08T05:16:23.636Z,2.58
2023-01-08T05:18:50.233Z,3.53
2023-01-08T05:21:17.021Z,2.08
2023-01-08T05:23:50.031Z,2.33
2023-01-08T05:26:17.288Z,2.10
2023-01-08T05:28:43.996Z,3.38
2023-01-08T05:31:11.647Z,2.55
2023-01-08T05:33:38.935Z,2.45
2023-01-08T05:36:07.027Z,2.58
2023-01-08T05:38:33.720Z,1.95
2023-01-08T05:41:00.174Z,3.13
2023-01-08T05:43:26.657Z,2.70
2023-01-08T05:45:53.107Z,2.58
2023-01-08T05:48:19.503Z,2.95
2023-01-08T05:50:49.399Z,1.90
2023-01-08T05:53:16.982Z,2.70
2023-01-08T05:55:43.540Z,2.15
2023-01-08T05:58:11.087Z,2.90
2023-01-08T06:00:38.116Z,2.30
2023-01-08T06:03:05.177Z,1.95
2023-01-08T06:05:32.458Z,1.83
2023-01-08T06:07:59.606Z,1.70
2023-01-08T06:10:26.663Z,1.75
2023-01-08T06:12:52.982Z,2.63
2023-01-08T06:15:19.348Z,2.00
2023-01-08T06:17:45.697Z,2.35
2023-01-08T06:20:12.162Z,1.83
2023-01-08T06:22:38.554Z,1.98
2023-01-08T06:25:05.245Z,1.38
2023-01-08T06:27:31.607Z,1.50
2023-01-08T06:29:58.022Z,2.08
2023-01-08T06:32:24.907Z,1.85
2023-01-08T06:34:51.263Z,2.10
2023-01-08T06:37:17.604Z,1.38
2023-01-08T06:39:43.991Z,1.52
2023-01-08T06:42:10.331Z,2.25
2023-01-08T06:44:36.683Z,2.33
2023-01-08T06:47:03.092Z,2.53
2023-01-08T06:49:29.400Z,3.70
2023-01-08T06:51:57.073Z,2.92
2023-01-08T06:54:23.491Z,2.53
2023-01-08T06:56:54.103Z,1.75
2023-01-08T06:59:20.922Z,2.22
2023-01-08T07:01:47.368Z,3.00
2023-01-08T07:04:13.828Z,3.65
2023-01-08T07:06:40.142Z,1.63
2023-01-08T07:09:06.597Z,2.33
2023-01-08T07:11:33.986Z,2.50
2023-01-08T07:14:00.349Z,2.67
2023-01-08T07:16:26.751Z,2.78
2023-01-08T07:18:53.188Z,2.15
2023-01-08T07:21:20.952Z,1.85
2023-01-08T07:23:49.100Z,1.90
2023-01-08T07:26:15.693Z,2.60
2023-01-08T07:28:42.371Z,3.00
2023-01-08T07:31:09.038Z,1.65
2023-01-08T07:33:35.849Z,2.03
2023-01-08T07:36:02.771Z,1.48
2023-01-08T07:38:29.347Z,1.30
2023-01-08T07:40:57.930Z,1.55
2023-01-08T07:43:25.162Z,1.70
2023-01-08T07:45:51.593Z,1.88
2023-01-08T07:48:17.916Z,1.65
2023-01-08T07:50:44.775Z,2.28
2023-01-08T07:53:13.714Z,1.42
2023-01-08T07:55:40.208Z,2.28
2023-01-08T07:58:11.113Z,2.50
2023-01-08T08:00:37.571Z,1.77
2023-01-08T08:03:06.215Z,1.60
2023-01-08T08:05:33.410Z,2.80
2023-01-08T08:07:59.819Z,1.65
2023-01-08T08:10:26.402Z,1.02
2023-01-08T08:12:52.708Z,0.90
2023-01-08T08:15:19.031Z,1.30
2023-01-08T08:17:47.352Z,1.05
2023-01-08T08:20:14.009Z,1.05
2023-01-08T08:22:40.405Z,1.50
2023-01-08T08:25:07.301Z,1.30
2023-01-08T08:27:33.673Z,1.75
2023-01-08T08:29:59.995Z,2.53
2023-01-08T08:32:26.359Z,1.83
2023-01-08T08:34:52.800Z,0.77
2023-01-08T08:37:19.154Z,0.77
2023-01-08T08:39:45.467Z,3.08
2023-01-08T08:42:11.807Z,2.20
2023-01-08T08:44:38.268Z,1.40
2023-01-08T08:47:08.974Z,2.13
2023-01-08T08:49:36.420Z,1.45
2023-01-08T08:52:03.936Z,2.38
2023-01-08T08:54:30.382Z,1.75
2023-01-08T08:56:56.740Z,2.25
2023-01-08T08:59:23.060Z,1.40
2023-01-08T09:01:49.585Z,2.55
2023-01-08T09:04:16.029Z,2.95
2023-01-08T09:06:42.391Z,1.55
2023-01-08T09:09:09.269Z,2.53
2023-01-08T09:11:35.633Z,2.10
2023-01-08T09:14:01.975Z,1.63
2023-01-08T09:16:28.417Z,3.25
2023-01-08T09:18:54.754Z,2.60
2023-01-08T09:21:21.109Z,1.23
2023-01-08T09:23:48.656Z,2.88
2023-01-08T09:26:15.353Z,1.20
2023-01-08T09:28:41.839Z,1.73
2023-01-08T09:31:08.197Z,2.40
2023-01-08T09:33:34.600Z,1.55
2023-01-08T09:36:00.931Z,3.65
2023-01-08T09:38:29.728Z,2.22
2023-01-08T09:41:00.973Z,1.73
2023-01-08T09:43:30.340Z,1.70
2023-01-08T09:46:00.732Z,1.80
2023-01-08T09:48:32.554Z,4.72
2023-01-08T09:50:58.996Z,2.70
2023-01-08T09:53:25.566Z,3.83
2023-01-08T09:56:09.003Z,4.28
2023-01-08T09:58:53.232Z,4.68
2023-01-08T10:01:28.842Z,2.03
2023-01-08T10:04:14.678Z,3.22
2023-01-08T10:06:45.930Z,5.20
2023-01-08T10:09:14.549Z,6.93
2023-01-08T10:11:44.565Z,4.20
2023-01-08T10:14:22.148Z,2.83
2023-01-08T10:16:53.814Z,4.57
2023-01-08T10:19:20.144Z,3.63
2023-01-08T10:21:47.018Z,2.85
2023-01-08T10:24:13.341Z,5.55
2023-01-08T10:26:39.769Z,4.00
2023-01-08T10:29:13.181Z,4.25
2023-01-08T10:31:55.395Z,3.50
2023-01-08T10:34:26.700Z,6.55
2023-01-08T10:36:54.642Z,7.38
2023-01-08T10:39:24.265Z,7.75
2023-01-08T10:41:53.844Z,4.63
2023-01-08T10:44:23.439Z,3.97
2023-01-08T10:46:54.728Z,6.63
2023-01-08T10:49:28.344Z,3.40
2023-01-08T10:51:55.613Z,6.95
2023-01-08T10:54:40.916Z,6.18
2023-01-08T10:57:25.624Z,6.60
2023-01-08T10:59:52.517Z,6.97
2023-01-08T11:02:39.171Z,8.68
2023-01-08T11:05:11.168Z,6.32
2023-01-08T11:07:40.111Z,4.13
2023-01-08T11:10:19.867Z,7.78
2023-01-08T11:12:46.782Z,5.30
2023-01-08T11:15:17.676Z,6.55
2023-01-08T11:17:44.525Z,8.50
2023-01-08T11:20:28.827Z,7.57
2023-01-08T11:23:19.984Z,3.38
2023-01-08T11:26:17.746Z,5.63
2023-01-08T11:29:06.611Z,11.23
2023-01-08T11:31:41.725Z,5.40
2023-01-08T11:34:18.284Z,9.32
2023-01-08T11:36:52.215Z,5.28
2023-01-08T11:39:19.374Z,4.68
2023-01-08T11:42:11.448Z,7.38
2023-01-08T11:44:55.856Z,8.15
2023-01-08T11:47:52.112Z,4.03
2023-01-08T11:50:32.127Z,7.82
2023-01-08T11:53:07.504Z,7.72
2023-01-08T11:55:47.451Z,8.95
2023-01-08T11:58:35.207Z,7.53
2023-01-08T12:01:40.098Z,7.18
2023-01-08T12:04:06.476Z,7.60
2023-01-08T12:06:40.321Z,8.20
2023-01-08T12:09:24.588Z,4.55
2023-01-08T12:11:57.003Z,5.05
2023-01-08T12:14:49.781Z,4.90
2023-01-08T12:17:40.535Z,6.60
2023-01-08T12:20:17.432Z,5.53
2023-01-08T12:22:59.044Z,5.35
2023-01-08T12:25:41.073Z,8.38
2023-01-08T12:28:32.403Z,3.25
2023-01-08T12:31:13.860Z,3.90
2023-01-08T12:33:51.117Z,5.85
2023-01-08T12:36:43.118Z,4.45
2023-01-08T12:39:18.751Z,6.40
2023-01-08T12:41:46.886Z,8.52
2023-01-08T12:44:22.577Z,5.35
2023-01-08T12:46:50.707Z,3.78
2023-01-08T12:49:26.787Z,5.13
2023-01-08T12:52:16.080Z,4.57
2023-01-08T12:54:51.575Z,3.35
2023-01-08T12:57:44.646Z,5.50
2023-01-08T13:00:37.888Z,4.70
2023-01-08T13:03:10.822Z,4.25
2023-01-08T13:05:37.884Z,4.03
2023-01-08T13:08:21.837Z,4.30
2023-01-08T13:10:52.208Z,4.57
2023-01-08T13:13:39.741Z,4.78
2023-01-08T13:16:06.991Z,2.83
2023-01-08T13:18:33.811Z,6.40
2023-01-08T13:21:02.170Z,3.30
2023-01-08T13:23:32.054Z,4.63
2023-01-08T13:26:00.474Z,3.08
2023-01-08T13:28:28.761Z,3.25
2023-01-08T13:31:06.577Z,2.97
2023-01-08T13:33:36.148Z,2.38
2023-01-08T13:36:17.557Z,3.28
2023-01-08T13:38:45.149Z,4.50
2023-01-08T13:41:57.900Z,3.08
2023-01-08T13:44:30.052Z,2.30
2023-01-08T13:46:59.043Z,3.25
2023-01-08T13:49:31.493Z,2.83
2023-01-08T13:51:57.940Z,3.53
2023-01-08T13:54:38.863Z,1.73
2023-01-08T13:57:12.252Z,4.20
2023-01-08T13:59:48.231Z,1.90
2023-01-08T14:05:26.472Z,2.83
2023-01-08T14:07:52.964Z,2.22
2023-01-08T14:10:20.521Z,1.05
2023-01-08T14:12:47.730Z,1.27
2023-01-08T14:15:25.658Z,0.88
2023-01-08T14:17:53.271Z,1.85
2023-01-08T14:20:26.447Z,1.52
2023-01-08T14:22:52.894Z,1.63
2023-01-08T14:25:20.075Z,1.60
2023-01-08T14:27:55.618Z,1.42
2023-01-08T14:30:22.134Z,3.33
2023-01-08T14:32:49.136Z,1.48
2023-01-08T14:35:20.798Z,1.50
2023-01-08T14:37:47.132Z,1.00
2023-01-08T14:40:15.673Z,1.75
2023-01-08T14:42:44.401Z,0.43
2023-01-08T14:45:26.951Z,2.90
2023-01-08T14:47:56.435Z,0.73
2023-01-08T14:50:26.565Z,1.52
2023-01-08T14:52:57.565Z,0.70
2023-01-08T14:55:25.362Z,0.80
2023-01-08T14:57:54.876Z,0.90
2023-01-08T15:00:26.447Z,1.52
2023-01-08T15:02:52.867Z,1.50
2023-01-08T15:05:31.031Z,1.80
2023-01-08T15:08:32.480Z,0.93
2023-01-08T15:11:02.004Z,2.50
2023-01-08T15:13:33.895Z,1.48
2023-01-08T15:16:07.080Z,1.65
2023-01-08T15:18:43.102Z,3.38
2023-01-08T15:21:09.823Z,3.60
2023-01-08T15:23:46.330Z,1.65
2023-01-08T15:26:14.694Z,2.10
2023-01-08T15:28:58.749Z,2.60
2023-01-08T15:31:41.289Z,1.08
2023-01-08T15:34:08.221Z,1.50
2023-01-08T15:36:34.741Z,2.13
2023-01-08T15:39:01.061Z,4.10
2023-01-08T15:41:56.802Z,3.08
2023-01-08T15:44:24.731Z,2.03
2023-01-08T15:46:52.260Z,1.80
2023-01-08T15:49:18.633Z,1.90
2023-01-08T15:51:51.074Z,3.08
2023-01-08T15:54:19.105Z,2.92
2023-01-08T15:56:45.424Z,1.42
2023-01-08T15:59:12.141Z,1.70
2023-01-08T16:01:38.691Z,2.20
2023-01-08T16:04:05.137Z,3.65
2023-01-08T16:06:31.866Z,2.92
2023-01-08T16:09:00.264Z,5.53
2023-01-08T16:11:26.860Z,6.82
2023-01-08T16:13:53.274Z,6.22
2023-01-08T16:16:20.865Z,4.47
2023-01-08T16:18:47.314Z,4.75
2023-01-08T16:21:13.787Z,2.92
2023-01-08T16:23:41.335Z,2.97
2023-01-08T16:26:12.575Z,3.50
2023-01-08T16:28:39.016Z,6.28
2023-01-08T16:31:06.156Z,3.70
2023-01-08T16:33:32.974Z,4.50
2023-01-08T16:36:01.991Z,3.50
2023-01-08T16:38:28.927Z,2.58
2023-01-08T16:40:59.665Z,2.63
2023-01-08T16:43:29.010Z,2.10
2023-01-08T16:45:56.196Z,4.72
2023-01-08T16:48:23.774Z,3.90
2023-01-08T16:50:50.201Z,6.32
2023-01-08T16:53:21.520Z,7.15
2023-01-08T16:55:50.756Z,4.15
2023-01-08T16:58:17.200Z,4.32
2023-01-08T17:00:43.658Z,3.38
2023-01-08T17:03:10.164Z,5.05
2023-01-08T17:05:36.879Z,2.42
2023-01-08T17:08:03.447Z,3.85
2023-01-08T17:10:29.877Z,2.08
2023-01-08T17:12:56.241Z,4.75
2023-01-08T17:15:22.652Z,3.47
2023-01-08T17:17:49.090Z,5.22
2023-01-08T17:20:15.597Z,7.53
2023-01-08T17:22:41.992Z,7.50
2023-01-08T17:25:08.870Z,7.57
2023-01-08T17:27:35.516Z,6.95
2023-01-08T17:30:02.248Z,6.00
2023-01-08T17:32:30.227Z,7.75
2023-01-08T17:34:56.668Z,7.97
2023-01-08T17:37:23.010Z,7.15
2023-01-08T17:39:49.528Z,6.28
2023-01-08T17:42:24.800Z,5.60
2023-01-08T17:44:51.628Z,7.88
2023-01-08T17:47:19.810Z,4.90
2023-01-08T17:49:54.648Z,4.78
2023-01-08T17:52:23.208Z,4.07
2023-01-08T17:54:51.396Z,4.93
2023-01-08T17:57:19.276Z,5.75
2023-01-08T17:59:46.498Z,4.63
2023-01-08T18:02:16.038Z,3.63
2023-01-08T18:04:43.774Z,3.63
2023-01-08T18:07:10.134Z,4.72
2023-01-08T18:09:36.889Z,2.88
2023-01-08T18:12:03.562Z,5.47
2023-01-08T18:14:29.949Z,4.00
2023-01-08T18:16:56.471Z,4.32
2023-01-08T18:19:23.010Z,4.32
2023-01-08T18:21:49.346Z,3.25
2023-01-08T18:24:15.988Z,3.70
2023-01-08T18:26:43.218Z,5.15
2023-01-08T18:29:09.569Z,5.88
2023-01-08T18:31:36.635Z,5.63
2023-01-08T18:34:03.809Z,4.25
2023-01-08T18:36:30.302Z,6.28
2023-01-08T18:38:57.751Z,4.35
2023-01-08T18:41:42.983Z,5.63
2023-01-08T18:44:10.185Z,5.03
2023-01-08T18:46:37.443Z,4.68
2023-01-08T18:49:04.845Z,5.15
2023-01-08T18:51:31.247Z,5.05
2023-01-08T18:53:57.982Z,4.47
2023-01-08T18:56:29.401Z,4.25
2023-01-08T18:58:56.479Z,6.68
2023-01-08T19:01:23.823Z,4.53
2023-01-08T19:03:50.255Z,5.00
2023-01-08T19:06:17.580Z,5.07
2023-01-08T19:08:45.463Z,4.95
2023-01-08T19:11:11.916Z,4.38
2023-01-08T19:13:38.780Z,4.03
2023-01-08T19:16:11.137Z,3.08
2023-01-08T19:18:38.564Z,4.20
2023-01-08T19:21:06.960Z,3.53
2023-01-08T19:23:33.910Z,5.10
2023-01-08T19:26:04.466Z,5.25
2023-01-08T19:28:30.826Z,4.47
2023-01-08T19:30:58.901Z,4.07
2023-01-08T19:33:25.677Z,3.03
2023-01-08T19:35:52.282Z,2.58
2023-01-08T19:38:19.232Z,2.38
2023-01-08T19:40:45.725Z,1.75
2023-01-08T19:43:31.196Z,2.30
2023-01-08T19:46:05.024Z,3.30
2023-01-08T19:48:31.619Z,2.72
2023-01-08T19:50:57.958Z,3.00
2023-01-08T19:53:24.333Z,3.67
2023-01-08T19:55:50.729Z,5.50
2023-01-08T19:58:18.514Z,5.75
2023-01-08T20:00:44.951Z,6.07
2023-01-08T20:03:11.366Z,6.00
2023-01-08T20:05:42.102Z,7.10
2023-01-08T20:08:08.411Z,5.03
2023-01-08T20:10:34.861Z,5.57
2023-01-08T20:13:01.201Z,4.45
2023-01-08T20:15:28.903Z,4.05
2023-01-08T20:17:55.317Z,3.67
2023-01-08T20:20:21.656Z,4.03
2023-01-08T20:22:48.259Z,5.03
2023-01-08T20:25:14.777Z,5.97
2023-01-08T20:27:41.173Z,4.68
2023-01-08T20:30:10.248Z,4.95
2023-01-08T20:32:36.860Z,4.32
2023-01-08T20:35:04.739Z,5.10
2023-01-08T20:37:31.190Z,5.90
2023-01-08T20:39:57.723Z,4.57
2023-01-08T20:42:33.335Z,6.90
2023-01-08T20:45:00.616Z,5.70
2023-01-08T20:47:27.010Z,3.55
2023-01-08T20:49:53.371Z,5.50
2023-01-08T20:52:19.673Z,3.72
2023-01-08T20:54:46.149Z,4.07
2023-01-08T20:57:12.569Z,4.40
2023-01-08T20:59:38.912Z,4.93
2023-01-08T21:02:06.110Z,6.43
2023-01-08T21:04:32.809Z,3.92
2023-01-08T21:06:59.192Z,3.75
2023-01-08T21:09:25.601Z,3.83
2023-01-08T21:11:52.083Z,3.50
2023-01-08T21:14:18.455Z,4.47
2023-01-08T21:16:44.950Z,3.22
2023-01-08T21:19:11.558Z,3.80
2023-01-08T21:21:40.276Z,3.78
2023-01-08T21:24:08.942Z,3.95
2023-01-08T21:26:36.997Z,3.38
2023-01-08T21:29:05.856Z,2.10
2023-01-08T21:31:32.931Z,5.03
2023-01-08T21:34:00.253Z,2.72
2023-01-08T21:36:28.671Z,2.10
2023-01-08T21:38:59.360Z,3.97
2023-01-08T21:41:46.347Z,4.13
2023-01-08T21:44:37.541Z,3.28
2023-01-08T21:47:06.715Z,2.83
2023-01-08T21:49:33.104Z,3.90
2023-01-08T21:52:17.914Z,3.40
2023-01-08T21:54:44.239Z,4.13
2023-01-08T21:57:10.896Z,4.57
2023-01-08T21:59:37.459Z,1.90
2023-01-08T22:02:05.134Z,2.20
2023-01-08T22:04:31.690Z,3.55
2023-01-08T22:06:58.886Z,3.35
2023-01-08T22:09:25.231Z,3.10
2023-01-08T22:11:51.551Z,5.00
2023-01-08T22:14:18.122Z,3.45
2023-01-08T22:16:44.510Z,4.88
2023-01-08T22:19:10.991Z,2.70
2023-01-08T22:21:39.097Z,2.80
2023-01-08T22:24:06.080Z,3.22
2023-01-08T22:26:35.009Z,3.60
2023-01-08T22:29:02.660Z,2.92
2023-01-08T22:31:29.087Z,4.25
2023-01-08T22:33:56.411Z,3.35
2023-01-08T22:36:23.176Z,2.90
2023-01-08T22:38:49.580Z,3.08
2023-01-08T22:41:21.563Z,2.20
2023-01-08T22:43:48.252Z,3.70
2023-01-08T22:46:16.213Z,2.70
2023-01-08T22:48:43.787Z,2.60
2023-01-08T22:51:10.841Z,1.92
2023-01-08T22:53:37.591Z,2.72
2023-01-08T22:56:11.875Z,1.98
2023-01-08T22:58:42.316Z,3.60
2023-01-08T23:01:18.126Z,2.67
2023-01-08T23:06:16.274Z,4.50
2023-01-08T23:08:44.449Z,2.85
2023-01-08T23:11:14.157Z,2.28
2023-01-08T23:13:41.229Z,4.82
2023-01-08T23:16:11.380Z,2.03
2023-01-08T23:18:39.455Z,4.70
2023-01-08T23:21:11.599Z,3.53
2023-01-08T23:23:38.152Z,3.13
2023-01-08T23:26:12.483Z,3.25
2023-01-08T23:28:39.655Z,2.83
2023-01-08T23:31:11.314Z,1.60
2023-01-08T23:33:37.749Z,2.10
2023-01-08T23:36:05.434Z,5.03
2023-01-08T23:38:31.929Z,2.90
2023-01-08T23:40:58.489Z,4.72
2023-01-08T23:43:25.277Z,1.67
2023-01-08T23:45:51.755Z,2.45
2023-01-08T23:48:18.647Z,1.65
2023-01-08T23:50:45.024Z,2.72
2023-01-08T23:53:11.401Z,2.47
2023-01-08T23:55:37.840Z,3.65
2023-01-08T23:58:04.233Z,2.90
